sensor_id;sensor_type;location;lat;lon;timestamp;P1;durP1;ratioP1;P2;durP2;ratioP2
14732;SDS011;7457;50.960;6.830;2023-11-18T00:00:43;133.18;;;30.42;;
14732;SDS011;7457;50.960;6.830;2023-11-18T00:03:09;123.22;;;29.52;;
14732;SDS011;7457;50.960;6.830;2023-11-18T00:05:35;113.75;;;29.75;;
14732;SDS011;7457;50.960;6.830;2023-11-18T00:08:01;130.43;;;28.52;;
14732;SDS011;7457;50.960;6.830;2023-11-18T00:10:26;122.95;;;32.10;;
14732;SDS011;7457;50.960;6.830;2023-11-18T00:12:52;113.13;;;27.88;;
14732;SDS011;7457;50.960;6.830;2023-11-18T00:15:18;120.57;;;30.08;;
14732;SDS011;7457;50.960;6.830;2023-11-18T00:17:45;120.03;;;31.05;;
14732;SDS011;7457;50.960;6.830;2023-11-18T00:20:10;134.18;;;31.77;;
14732;SDS011;7457;50.960;6.830;2023-11-18T00:22:39;90.72;;;27.52;;
14732;SDS011;7457;50.960;6.830;2023-11-18T00:25:07;140.00;;;29.50;;
14732;SDS011;7457;50.960;6.830;2023-11-18T00:27:34;81.35;;;26.13;;
14732;SDS011;7457;50.960;6.830;2023-11-18T00:30:03;118.60;;;29.85;;
14732;SDS011;7457;50.960;6.830;2023-11-18T00:32:30;125.10;;;29.75;;
14732;SDS011;7457;50.960;6.830;2023-11-18T00:34:56;91.80;;;27.98;;
14732;SDS011;7457;50.960;6.830;2023-11-18T00:37:22;95.53;;;29.88;;
14732;SDS011;7457;50.960;6.830;2023-11-18T00:39:48;149.43;;;35.55;;
14732;SDS011;7457;50.960;6.830;2023-11-18T00:42:13;124.53;;;33.25;;
14732;SDS011;7457;50.960;6.830;2023-11-18T00:44:39;105.85;;;31.15;;
14732;SDS011;7457;50.960;6.830;2023-11-18T00:47:05;135.75;;;37.35;;
14732;SDS011;7457;50.960;6.830;2023-11-18T00:49:30;115.85;;;31.50;;
14732;SDS011;7457;50.960;6.830;2023-11-18T00:51:56;111.43;;;32.17;;
14732;SDS011;7457;50.960;6.830;2023-11-18T00:54:22;75.28;;;27.73;;
14732;SDS011;7457;50.960;6.830;2023-11-18T00:56:47;105.57;;;33.45;;
14732;SDS011;7457;50.960;6.830;2023-11-18T00:59:13;71.57;;;27.30;;
14732;SDS011;7457;50.960;6.830;2023-11-18T01:01:39;72.95;;;26.85;;
14732;SDS011;7457;50.960;6.830;2023-11-18T01:04:05;63.72;;;25.30;;
14732;SDS011;7457;50.960;6.830;2023-11-18T01:06:30;83.43;;;29.77;;
14732;SDS011;7457;50.960;6.830;2023-11-18T01:08:57;76.63;;;27.70;;
14732;SDS011;7457;50.960;6.830;2023-11-18T01:11:23;90.00;;;29.42;;
14732;SDS011;7457;50.960;6.830;2023-11-18T01:13:49;68.30;;;26.77;;
14732;SDS011;7457;50.960;6.830;2023-11-18T01:16:15;86.22;;;28.17;;
14732;SDS011;7457;50.960;6.830;2023-11-18T01:18:41;82.53;;;30.27;;
14732;SDS011;7457;50.960;6.830;2023-11-18T01:21:07;82.45;;;28.17;;
14732;SDS011;7457;50.960;6.830;2023-11-18T01:23:36;74.15;;;27.35;;
14732;SDS011;7457;50.960;6.830;2023-11-18T01:26:04;77.47;;;29.98;;
14732;SDS011;7457;50.960;6.830;2023-11-18T01:28:33;73.22;;;26.58;;
14732;SDS011;7457;50.960;6.830;2023-11-18T01:31:04;86.20;;;30.77;;
14732;SDS011;7457;50.960;6.830;2023-11-18T01:33:30;83.28;;;28.10;;
14732;SDS011;7457;50.960;6.830;2023-11-18T01:35:57;83.25;;;27.40;;
14732;SDS011;7457;50.960;6.830;2023-11-18T01:38:23;85.03;;;29.13;;
14732;SDS011;7457;50.960;6.830;2023-11-18T01:40:51;79.75;;;26.25;;
14732;SDS011;7457;50.960;6.830;2023-11-18T01:43:18;87.85;;;28.65;;
14732;SDS011;7457;50.960;6.830;2023-11-18T01:45:44;84.95;;;28.55;;
14732;SDS011;7457;50.960;6.830;2023-11-18T01:48:09;101.85;;;31.17;;
14732;SDS011;7457;50.960;6.830;2023-11-18T01:50:36;86.55;;;27.48;;
14732;SDS011;7457;50.960;6.830;2023-11-18T01:53:03;85.38;;;30.67;;
14732;SDS011;7457;50.960;6.830;2023-11-18T01:55:30;82.45;;;28.98;;
14732;SDS011;7457;50.960;6.830;2023-11-18T01:57:59;81.03;;;29.08;;
14732;SDS011;7457;50.960;6.830;2023-11-18T02:00:28;79.45;;;30.60;;
14732;SDS011;7457;50.960;6.830;2023-11-18T02:02:55;79.10;;;29.02;;
14732;SDS011;7457;50.960;6.830;2023-11-18T02:05:21;84.13;;;29.23;;
14732;SDS011;7457;50.960;6.830;2023-11-18T02:07:47;74.40;;;26.67;;
14732;SDS011;7457;50.960;6.830;2023-11-18T02:10:12;73.20;;;27.13;;
14732;SDS011;7457;50.960;6.830;2023-11-18T02:12:43;80.07;;;30.15;;
14732;SDS011;7457;50.960;6.830;2023-11-18T02:15:14;68.50;;;27.45;;
14732;SDS011;7457;50.960;6.830;2023-11-18T02:17:42;75.13;;;27.95;;
14732;SDS011;7457;50.960;6.830;2023-11-18T02:20:10;69.10;;;27.33;;
14732;SDS011;7457;50.960;6.830;2023-11-18T02:22:42;74.53;;;27.40;;
14732;SDS011;7457;50.960;6.830;2023-11-18T02:25:14;72.20;;;28.10;;
14732;SDS011;7457;50.960;6.830;2023-11-18T02:27:41;65.35;;;26.27;;
14732;SDS011;7457;50.960;6.830;2023-11-18T02:30:08;72.07;;;28.73;;
14732;SDS011;7457;50.960;6.830;2023-11-18T02:37:53;72.95;;;27.13;;
14732;SDS011;7457;50.960;6.830;2023-11-18T02:40:21;67.57;;;28.25;;
14732;SDS011;7457;50.960;6.830;2023-11-18T02:42:54;61.60;;;25.20;;
14732;SDS011;7457;50.960;6.830;2023-11-18T02:45:23;60.28;;;26.20;;
14732;SDS011;7457;50.960;6.830;2023-11-18T02:47:51;60.78;;;27.10;;
14732;SDS011;7457;50.960;6.830;2023-11-18T02:50:16;60.97;;;26.05;;
14732;SDS011;7457;50.960;6.830;2023-11-18T02:52:44;60.78;;;26.63;;
14732;SDS011;7457;50.960;6.830;2023-11-18T02:55:10;56.78;;;25.48;;
14732;SDS011;7457;50.960;6.830;2023-11-18T02:57:36;54.22;;;23.25;;
14732;SDS011;7457;50.960;6.830;2023-11-18T03:00:03;59.20;;;28.42;;
14732;SDS011;7457;50.960;6.830;2023-11-18T03:02:41;64.18;;;27.13;;
14732;SDS011;7457;50.960;6.830;2023-11-18T03:05:07;53.47;;;22.77;;
14732;SDS011;7457;50.960;6.830;2023-11-18T03:07:36;60.58;;;25.35;;
14732;SDS011;7457;50.960;6.830;2023-11-18T03:10:02;58.70;;;25.60;;
14732;SDS011;7457;50.960;6.830;2023-11-18T03:12:34;56.83;;;26.42;;
14732;SDS011;7457;50.960;6.830;2023-11-18T03:15:00;48.55;;;22.92;;
14732;SDS011;7457;50.960;6.830;2023-11-18T03:17:26;55.80;;;24.33;;
14732;SDS011;7457;50.960;6.830;2023-11-18T03:19:53;45.47;;;22.23;;
14732;SDS011;7457;50.960;6.830;2023-11-18T03:22:19;57.60;;;23.95;;
14732;SDS011;7457;50.960;6.830;2023-11-18T03:24:44;46.97;;;22.90;;
14732;SDS011;7457;50.960;6.830;2023-11-18T03:27:10;55.17;;;25.52;;
14732;SDS011;7457;50.960;6.830;2023-11-18T03:29:35;48.90;;;22.92;;
14732;SDS011;7457;50.960;6.830;2023-11-18T03:32:01;43.67;;;24.05;;
14732;SDS011;7457;50.960;6.830;2023-11-18T03:34:27;51.38;;;22.73;;
14732;SDS011;7457;50.960;6.830;2023-11-18T03:36:53;49.45;;;23.73;;
14732;SDS011;7457;50.960;6.830;2023-11-18T03:39:21;47.67;;;22.00;;
14732;SDS011;7457;50.960;6.830;2023-11-18T03:41:47;56.10;;;25.90;;
14732;SDS011;7457;50.960;6.830;2023-11-18T03:44:14;42.10;;;21.88;;
14732;SDS011;7457;50.960;6.830;2023-11-18T03:46:40;47.40;;;22.33;;
14732;SDS011;7457;50.960;6.830;2023-11-18T03:49:06;47.22;;;23.77;;
14732;SDS011;7457;50.960;6.830;2023-11-18T03:51:31;47.17;;;21.85;;
14732;SDS011;7457;50.960;6.830;2023-11-18T03:53:57;45.65;;;22.25;;
14732;SDS011;7457;50.960;6.830;2023-11-18T03:56:23;46.45;;;24.15;;
14732;SDS011;7457;50.960;6.830;2023-11-18T03:58:48;42.28;;;21.80;;
14732;SDS011;7457;50.960;6.830;2023-11-18T04:01:21;52.20;;;23.00;;
14732;SDS011;7457;50.960;6.830;2023-11-18T04:03:47;44.00;;;23.23;;
14732;SDS011;7457;50.960;6.830;2023-11-18T04:06:13;42.65;;;20.52;;
14732;SDS011;7457;50.960;6.830;2023-11-18T04:08:42;44.25;;;22.75;;
14732;SDS011;7457;50.960;6.830;2023-11-18T04:11:12;38.78;;;19.77;;
14732;SDS011;7457;50.960;6.830;2023-11-18T04:13:39;38.45;;;21.23;;
14732;SDS011;7457;50.960;6.830;2023-11-18T04:16:09;39.17;;;19.35;;
14732;SDS011;7457;50.960;6.830;2023-11-18T04:18:40;38.40;;;20.17;;
14732;SDS011;7457;50.960;6.830;2023-11-18T04:21:06;44.17;;;21.55;;
14732;SDS011;7457;50.960;6.830;2023-11-18T04:23:34;37.10;;;19.35;;
14732;SDS011;7457;50.960;6.830;2023-11-18T04:26:03;40.00;;;20.60;;
14732;SDS011;7457;50.960;6.830;2023-11-18T04:28:29;40.17;;;20.10;;
14732;SDS011;7457;50.960;6.830;2023-11-18T04:30:55;48.38;;;22.27;;
14732;SDS011;7457;50.960;6.830;2023-11-18T04:33:21;41.22;;;20.38;;
14732;SDS011;7457;50.960;6.830;2023-11-18T04:35:47;38.67;;;20.30;;
14732;SDS011;7457;50.960;6.830;2023-11-18T04:38:13;48.47;;;22.35;;
14732;SDS011;7457;50.960;6.830;2023-11-18T04:40:38;45.08;;;23.13;;
14732;SDS011;7457;50.960;6.830;2023-11-18T04:43:06;47.33;;;24.88;;
14732;SDS011;7457;50.960;6.830;2023-11-18T04:45:32;43.15;;;22.48;;
14732;SDS011;7457;50.960;6.830;2023-11-18T04:47:57;48.20;;;20.88;;
14732;SDS011;7457;50.960;6.830;2023-11-18T04:50:24;49.03;;;23.77;;
14732;SDS011;7457;50.960;6.830;2023-11-18T04:52:50;47.72;;;22.73;;
14732;SDS011;7457;50.960;6.830;2023-11-18T04:55:15;52.38;;;22.52;;
14732;SDS011;7457;50.960;6.830;2023-11-18T04:57:41;50.65;;;24.88;;
14732;SDS011;7457;50.960;6.830;2023-11-18T05:00:07;49.25;;;23.38;;
14732;SDS011;7457;50.960;6.830;2023-11-18T05:02:37;57.13;;;25.98;;
14732;SDS011;7457;50.960;6.830;2023-11-18T05:05:03;53.83;;;25.35;;
14732;SDS011;7457;50.960;6.830;2023-11-18T05:07:31;56.70;;;26.00;;
14732;SDS011;7457;50.960;6.830;2023-11-18T05:09:57;48.28;;;22.77;;
14732;SDS011;7457;50.960;6.830;2023-11-18T05:12:23;50.63;;;24.20;;
14732;SDS011;7457;50.960;6.830;2023-11-18T05:14:48;49.85;;;22.35;;
14732;SDS011;7457;50.960;6.830;2023-11-18T05:17:17;50.35;;;24.38;;
14732;SDS011;7457;50.960;6.830;2023-11-18T05:19:42;54.28;;;24.55;;
14732;SDS011;7457;50.960;6.830;2023-11-18T05:22:08;48.55;;;22.55;;
14732;SDS011;7457;50.960;6.830;2023-11-18T05:24:34;52.15;;;25.20;;
14732;SDS011;7457;50.960;6.830;2023-11-18T05:27:00;51.35;;;23.27;;
14732;SDS011;7457;50.960;6.830;2023-11-18T05:29:28;45.75;;;22.25;;
14732;SDS011;7457;50.960;6.830;2023-11-18T05:31:55;53.00;;;24.38;;
14732;SDS011;7457;50.960;6.830;2023-11-18T05:34:21;49.42;;;23.42;;
14732;SDS011;7457;50.960;6.830;2023-11-18T05:36:47;52.33;;;24.55;;
14732;SDS011;7457;50.960;6.830;2023-11-18T05:39:16;53.95;;;25.17;;
14732;SDS011;7457;50.960;6.830;2023-11-18T05:41:42;48.55;;;23.35;;
14732;SDS011;7457;50.960;6.830;2023-11-18T05:44:11;48.63;;;23.10;;
14732;SDS011;7457;50.960;6.830;2023-11-18T05:46:42;50.80;;;24.65;;
14732;SDS011;7457;50.960;6.830;2023-11-18T05:49:11;46.10;;;22.75;;
14732;SDS011;7457;50.960;6.830;2023-11-18T05:51:38;49.03;;;24.55;;
14732;SDS011;7457;50.960;6.830;2023-11-18T05:54:06;50.67;;;24.20;;
14732;SDS011;7457;50.960;6.830;2023-11-18T05:56:32;42.15;;;21.40;;
14732;SDS011;7457;50.960;6.830;2023-11-18T05:58:57;42.10;;;21.10;;
14732;SDS011;7457;50.960;6.830;2023-11-18T06:01:23;49.03;;;22.95;;
14732;SDS011;7457;50.960;6.830;2023-11-18T06:03:52;45.63;;;22.10;;
14732;SDS011;7457;50.960;6.830;2023-11-18T06:06:18;42.42;;;20.63;;
14732;SDS011;7457;50.960;6.830;2023-11-18T06:08:46;36.72;;;20.73;;
14732;SDS011;7457;50.960;6.830;2023-11-18T06:11:12;50.90;;;21.95;;
14732;SDS011;7457;50.960;6.830;2023-11-18T06:13:43;47.22;;;22.73;;
14732;SDS011;7457;50.960;6.830;2023-11-18T06:18:55;41.17;;;22.02;;
14732;SDS011;7457;50.960;6.830;2023-11-18T06:21:22;35.30;;;20.13;;
14732;SDS011;7457;50.960;6.830;2023-11-18T06:23:53;42.30;;;21.25;;
14732;SDS011;7457;50.960;6.830;2023-11-18T06:26:20;39.05;;;20.30;;
14732;SDS011;7457;50.960;6.830;2023-11-18T06:28:48;41.55;;;20.85;;
14732;SDS011;7457;50.960;6.830;2023-11-18T06:31:14;40.97;;;21.52;;
14732;SDS011;7457;50.960;6.830;2023-11-18T06:36:09;40.40;;;20.65;;
14732;SDS011;7457;50.960;6.830;2023-11-18T06:38:38;46.10;;;22.63;;
14732;SDS011;7457;50.960;6.830;2023-11-18T06:41:05;39.92;;;21.60;;
14732;SDS011;7457;50.960;6.830;2023-11-18T06:43:35;35.72;;;20.15;;
14732;SDS011;7457;50.960;6.830;2023-11-18T06:46:20;34.00;;;19.75;;
14732;SDS011;7457;50.960;6.830;2023-11-18T06:48:48;35.83;;;19.27;;
14732;SDS011;7457;50.960;6.830;2023-11-18T06:51:20;34.92;;;18.83;;
14732;SDS011;7457;50.960;6.830;2023-11-18T06:53:49;37.47;;;19.08;;
14732;SDS011;7457;50.960;6.830;2023-11-18T06:56:24;34.17;;;18.70;;
14732;SDS011;7457;50.960;6.830;2023-11-18T06:58:50;36.40;;;19.10;;
14732;SDS011;7457;50.960;6.830;2023-11-18T07:01:16;29.98;;;17.55;;
14732;SDS011;7457;50.960;6.830;2023-11-18T07:03:43;34.25;;;18.90;;
14732;SDS011;7457;50.960;6.830;2023-11-18T07:06:10;32.83;;;17.52;;
14732;SDS011;7457;50.960;6.830;2023-11-18T07:08:36;31.52;;;18.27;;
14732;SDS011;7457;50.960;6.830;2023-11-18T07:11:02;34.30;;;19.08;;
14732;SDS011;7457;50.960;6.830;2023-11-18T07:13:28;30.00;;;16.92;;
14732;SDS011;7457;50.960;6.830;2023-11-18T07:15:54;33.30;;;17.90;;
14732;SDS011;7457;50.960;6.830;2023-11-18T07:18:22;34.33;;;19.45;;
14732;SDS011;7457;50.960;6.830;2023-11-18T07:20:49;29.73;;;16.83;;
14732;SDS011;7457;50.960;6.830;2023-11-18T07:23:16;30.17;;;17.65;;
14732;SDS011;7457;50.960;6.830;2023-11-18T07:25:42;28.77;;;16.95;;
14732;SDS011;7457;50.960;6.830;2023-11-18T07:28:09;30.23;;;16.52;;
14732;SDS011;7457;50.960;6.830;2023-11-18T07:30:36;28.90;;;17.25;;
14732;SDS011;7457;50.960;6.830;2023-11-18T07:33:02;30.75;;;17.98;;
14732;SDS011;7457;50.960;6.830;2023-11-18T07:35:28;35.13;;;18.95;;
14732;SDS011;7457;50.960;6.830;2023-11-18T07:37:55;30.23;;;16.02;;
14732;SDS011;7457;50.960;6.830;2023-11-18T07:40:21;34.17;;;18.92;;
14732;SDS011;7457;50.960;6.830;2023-11-18T07:42:53;31.00;;;16.58;;
14732;SDS011;7457;50.960;6.830;2023-11-18T07:45:21;28.42;;;18.48;;
14732;SDS011;7457;50.960;6.830;2023-11-18T07:47:48;28.33;;;16.70;;
14732;SDS011;7457;50.960;6.830;2023-11-18T07:50:16;27.70;;;17.38;;
14732;SDS011;7457;50.960;6.830;2023-11-18T07:52:46;30.55;;;18.13;;
14732;SDS011;7457;50.960;6.830;2023-11-18T07:55:15;25.48;;;15.80;;
14732;SDS011;7457;50.960;6.830;2023-11-18T07:57:42;33.55;;;16.75;;
14732;SDS011;7457;50.960;6.830;2023-11-18T08:00:08;29.63;;;17.38;;
14732;SDS011;7457;50.960;6.830;2023-11-18T08:02:35;25.55;;;15.88;;
14732;SDS011;7457;50.960;6.830;2023-11-18T08:05:04;23.40;;;15.35;;
14732;SDS011;7457;50.960;6.830;2023-11-18T08:07:33;27.52;;;16.38;;
14732;SDS011;7457;50.960;6.830;2023-11-18T08:10:00;26.20;;;15.48;;
14732;SDS011;7457;50.960;6.830;2023-11-18T08:12:30;26.27;;;15.65;;
14732;SDS011;7457;50.960;6.830;2023-11-18T08:14:56;24.40;;;15.55;;
14732;SDS011;7457;50.960;6.830;2023-11-18T08:17:23;22.77;;;14.05;;
14732;SDS011;7457;50.960;6.830;2023-11-18T08:19:50;27.50;;;14.75;;
14732;SDS011;7457;50.960;6.830;2023-11-18T08:22:16;23.75;;;15.27;;
14732;SDS011;7457;50.960;6.830;2023-11-18T08:24:44;22.63;;;15.52;;
14732;SDS011;7457;50.960;6.830;2023-11-18T08:27:10;23.45;;;15.52;;
14732;SDS011;7457;50.960;6.830;2023-11-18T08:29:36;23.23;;;14.93;;
14732;SDS011;7457;50.960;6.830;2023-11-18T08:32:04;25.10;;;15.13;;
14732;SDS011;7457;50.960;6.830;2023-11-18T08:34:30;22.00;;;14.32;;
14732;SDS011;7457;50.960;6.830;2023-11-18T08:36:58;23.65;;;14.05;;
14732;SDS011;7457;50.960;6.830;2023-11-18T08:39:25;22.50;;;14.88;;
14732;SDS011;7457;50.960;6.830;2023-11-18T08:41:51;19.10;;;13.25;;
14732;SDS011;7457;50.960;6.830;2023-11-18T08:44:17;20.48;;;12.95;;
14732;SDS011;7457;50.960;6.830;2023-11-18T08:46:43;20.15;;;14.27;;
14732;SDS011;7457;50.960;6.830;2023-11-18T08:49:09;19.98;;;13.07;;
14732;SDS011;7457;50.960;6.830;2023-11-18T08:51:37;20.23;;;12.60;;
14732;SDS011;7457;50.960;6.830;2023-11-18T08:54:06;18.83;;;12.45;;
14732;SDS011;7457;50.960;6.830;2023-11-18T08:56:48;21.20;;;12.82;;
14732;SDS011;7457;50.960;6.830;2023-11-18T08:59:16;22.65;;;13.30;;
14732;SDS011;7457;50.960;6.830;2023-11-18T09:01:50;18.25;;;12.55;;
14732;SDS011;7457;50.960;6.830;2023-11-18T09:04:20;19.00;;;12.10;;
14732;SDS011;7457;50.960;6.830;2023-11-18T09:06:49;19.65;;;12.18;;
14732;SDS011;7457;50.960;6.830;2023-11-18T09:09:19;20.60;;;13.68;;
14732;SDS011;7457;50.960;6.830;2023-11-18T09:11:54;17.50;;;11.82;;
14732;SDS011;7457;50.960;6.830;2023-11-18T09:14:21;19.33;;;13.05;;
14732;SDS011;7457;50.960;6.830;2023-11-18T09:16:49;21.05;;;12.07;;
14732;SDS011;7457;50.960;6.830;2023-11-18T09:19:21;18.77;;;13.25;;
14732;SDS011;7457;50.960;6.830;2023-11-18T09:21:47;15.85;;;10.88;;
14732;SDS011;7457;50.960;6.830;2023-11-18T09:24:13;16.20;;;11.93;;
14732;SDS011;7457;50.960;6.830;2023-11-18T09:26:43;17.10;;;12.23;;
14732;SDS011;7457;50.960;6.830;2023-11-18T09:29:12;19.02;;;12.68;;
14732;SDS011;7457;50.960;6.830;2023-11-18T09:31:42;18.27;;;13.35;;
14732;SDS011;7457;50.960;6.830;2023-11-18T09:34:13;16.77;;;11.98;;
14732;SDS011;7457;50.960;6.830;2023-11-18T09:36:45;14.50;;;11.60;;
14732;SDS011;7457;50.960;6.830;2023-11-18T09:39:13;17.27;;;11.70;;
14732;SDS011;7457;50.960;6.830;2023-11-18T09:41:57;17.25;;;12.30;;
14732;SDS011;7457;50.960;6.830;2023-11-18T09:44:23;15.35;;;11.13;;
14732;SDS011;7457;50.960;6.830;2023-11-18T09:46:56;18.15;;;13.00;;
14732;SDS011;7457;50.960;6.830;2023-11-18T09:49:31;19.92;;;11.95;;
14732;SDS011;7457;50.960;6.830;2023-11-18T09:52:03;17.38;;;11.88;;
14732;SDS011;7457;50.960;6.830;2023-11-18T09:54:34;15.50;;;12.27;;
14732;SDS011;7457;50.960;6.830;2023-11-18T10:02:11;14.77;;;12.00;;
14732;SDS011;7457;50.960;6.830;2023-11-18T10:04:38;16.13;;;10.65;;
14732;SDS011;7457;50.960;6.830;2023-11-18T10:07:04;19.92;;;12.65;;
14732;SDS011;7457;50.960;6.830;2023-11-18T10:09:35;15.60;;;11.52;;
14732;SDS011;7457;50.960;6.830;2023-11-18T10:12:04;12.93;;;9.75;;
14732;SDS011;7457;50.960;6.830;2023-11-18T10:14:33;15.52;;;11.40;;
14732;SDS011;7457;50.960;6.830;2023-11-18T10:17:03;13.77;;;9.50;;
14732;SDS011;7457;50.960;6.830;2023-11-18T10:22:25;12.27;;;9.63;;
14732;SDS011;7457;50.960;6.830;2023-11-18T10:24:53;12.57;;;9.38;;
14732;SDS011;7457;50.960;6.830;2023-11-18T10:27:24;14.75;;;10.90;;
14732;SDS011;7457;50.960;6.830;2023-11-18T10:29:58;13.00;;;9.65;;
14732;SDS011;7457;50.960;6.830;2023-11-18T10:32:27;10.60;;;9.35;;
14732;SDS011;7457;50.960;6.830;2023-11-18T10:34:55;13.10;;;9.57;;
14732;SDS011;7457;50.960;6.830;2023-11-18T10:37:21;12.52;;;10.23;;
14732;SDS011;7457;50.960;6.830;2023-11-18T10:39:48;13.13;;;9.48;;
14732;SDS011;7457;50.960;6.830;2023-11-18T10:42:17;12.82;;;8.25;;
14732;SDS011;7457;50.960;6.830;2023-11-18T10:44:56;10.55;;;8.68;;
14732;SDS011;7457;50.960;6.830;2023-11-18T10:47:26;11.93;;;9.00;;
14732;SDS011;7457;50.960;6.830;2023-11-18T10:49:55;15.45;;;8.85;;
14732;SDS011;7457;50.960;6.830;2023-11-18T10:52:24;11.50;;;8.93;;
14732;SDS011;7457;50.960;6.830;2023-11-18T10:55:00;12.48;;;8.25;;
14732;SDS011;7457;50.960;6.830;2023-11-18T10:57:32;11.18;;;9.27;;
14732;SDS011;7457;50.960;6.830;2023-11-18T11:00:04;12.13;;;9.27;;
14732;SDS011;7457;50.960;6.830;2023-11-18T11:02:39;12.43;;;8.70;;
14732;SDS011;7457;50.960;6.830;2023-11-18T11:05:09;12.75;;;10.02;;
14732;SDS011;7457;50.960;6.830;2023-11-18T11:07:42;14.85;;;9.20;;
14732;SDS011;7457;50.960;6.830;2023-11-18T11:10:08;13.52;;;8.90;;
14732;SDS011;7457;50.960;6.830;2023-11-18T11:12:36;13.23;;;9.88;;
14732;SDS011;7457;50.960;6.830;2023-11-18T11:15:26;12.85;;;9.30;;
14732;SDS011;7457;50.960;6.830;2023-11-18T11:17:58;12.38;;;9.57;;
14732;SDS011;7457;50.960;6.830;2023-11-18T11:20:37;11.27;;;8.73;;
14732;SDS011;7457;50.960;6.830;2023-11-18T11:26:17;11.43;;;9.10;;
14732;SDS011;7457;50.960;6.830;2023-11-18T11:28:55;14.27;;;9.60;;
14732;SDS011;7457;50.960;6.830;2023-11-18T11:31:39;13.75;;;9.13;;
14732;SDS011;7457;50.960;6.830;2023-11-18T11:34:09;13.07;;;9.55;;
14732;SDS011;7457;50.960;6.830;2023-11-18T11:36:48;16.92;;;9.48;;
14732;SDS011;7457;50.960;6.830;2023-11-18T11:39:15;11.65;;;9.48;;
14732;SDS011;7457;50.960;6.830;2023-11-18T11:41:54;12.68;;;9.13;;
14732;SDS011;7457;50.960;6.830;2023-11-18T11:44:21;15.35;;;9.32;;
14732;SDS011;7457;50.960;6.830;2023-11-18T11:46:54;12.13;;;8.10;;
14732;SDS011;7457;50.960;6.830;2023-11-18T11:49:21;12.90;;;8.20;;
14732;SDS011;7457;50.960;6.830;2023-11-18T11:54:45;11.70;;;7.78;;
14732;SDS011;7457;50.960;6.830;2023-11-18T11:57:21;11.43;;;8.45;;
14732;SDS011;7457;50.960;6.830;2023-11-18T12:02:18;10.48;;;8.35;;
14732;SDS011;7457;50.960;6.830;2023-11-18T12:04:49;10.98;;;8.25;;
14732;SDS011;7457;50.960;6.830;2023-11-18T12:07:19;8.98;;;7.10;;
14732;SDS011;7457;50.960;6.830;2023-11-18T12:09:48;8.32;;;6.07;;
14732;SDS011;7457;50.960;6.830;2023-11-18T12:12:23;10.90;;;6.32;;
14732;SDS011;7457;50.960;6.830;2023-11-18T12:14:53;8.15;;;6.05;;
14732;SDS011;7457;50.960;6.830;2023-11-18T12:17:25;8.57;;;5.68;;
14732;SDS011;7457;50.960;6.830;2023-11-18T12:19:57;8.65;;;5.53;;
14732;SDS011;7457;50.960;6.830;2023-11-18T12:22:31;8.98;;;5.40;;
14732;SDS011;7457;50.960;6.830;2023-11-18T12:25:45;7.43;;;5.15;;
14732;SDS011;7457;50.960;6.830;2023-11-18T12:28:14;8.68;;;5.72;;
14732;SDS011;7457;50.960;6.830;2023-11-18T12:33:16;8.75;;;5.47;;
14732;SDS011;7457;50.960;6.830;2023-11-18T12:41:05;10.98;;;4.45;;
14732;SDS011;7457;50.960;6.830;2023-11-18T12:46:14;7.00;;;4.18;;
14732;SDS011;7457;50.960;6.830;2023-11-18T12:49:04;7.70;;;4.20;;
14732;SDS011;7457;50.960;6.830;2023-11-18T12:51:30;8.40;;;4.68;;
14732;SDS011;7457;50.960;6.830;2023-11-18T12:53:59;6.32;;;4.68;;
14732;SDS011;7457;50.960;6.830;2023-11-18T12:56:27;6.50;;;5.13;;
14732;SDS011;7457;50.960;6.830;2023-11-18T12:58:55;8.95;;;5.15;;
14732;SDS011;7457;50.960;6.830;2023-11-18T13:01:21;11.50;;;6.47;;
14732;SDS011;7457;50.960;6.830;2023-11-18T13:03:47;7.78;;;5.70;;
14732;SDS011;7457;50.960;6.830;2023-11-18T13:06:13;7.25;;;5.43;;
14732;SDS011;7457;50.960;6.830;2023-11-18T13:08:39;7.60;;;5.43;;
14732;SDS011;7457;50.960;6.830;2023-11-18T13:11:06;9.05;;;5.38;;
14732;SDS011;7457;50.960;6.830;2023-11-18T13:13:37;10.20;;;7.45;;
14732;SDS011;7457;50.960;6.830;2023-11-18T13:16:04;7.63;;;6.47;;
14732;SDS011;7457;50.960;6.830;2023-11-18T13:18:46;9.02;;;6.10;;
14732;SDS011;7457;50.960;6.830;2023-11-18T13:21:17;10.48;;;6.60;;
14732;SDS011;7457;50.960;6.830;2023-11-18T13:23:47;9.15;;;6.40;;
14732;SDS011;7457;50.960;6.830;2023-11-18T13:26:14;9.15;;;6.18;;
14732;SDS011;7457;50.960;6.830;2023-11-18T13:28:40;8.43;;;5.68;;
14732;SDS011;7457;50.960;6.830;2023-11-18T13:31:06;6.55;;;4.50;;
14732;SDS011;7457;50.960;6.830;2023-11-18T13:33:38;8.75;;;5.25;;
14732;SDS011;7457;50.960;6.830;2023-11-18T13:36:05;5.65;;;4.40;;
14732;SDS011;7457;50.960;6.830;2023-11-18T13:38:35;5.30;;;4.43;;
14732;SDS011;7457;50.960;6.830;2023-11-18T13:41:01;5.00;;;4.03;;
14732;SDS011;7457;50.960;6.830;2023-11-18T13:43:28;7.35;;;4.82;;
14732;SDS011;7457;50.960;6.830;2023-11-18T13:46:10;7.00;;;4.85;;
14732;SDS011;7457;50.960;6.830;2023-11-18T13:48:37;4.38;;;3.83;;
14732;SDS011;7457;50.960;6.830;2023-11-18T13:51:06;7.57;;;6.18;;
14732;SDS011;7457;50.960;6.830;2023-11-18T13:53:39;9.07;;;6.18;;
14732;SDS011;7457;50.960;6.830;2023-11-18T13:56:06;9.45;;;4.82;;
14732;SDS011;7457;50.960;6.830;2023-11-18T13:58:34;7.38;;;5.72;;
14732;SDS011;7457;50.960;6.830;2023-11-18T14:01:04;10.15;;;6.00;;
14732;SDS011;7457;50.960;6.830;2023-11-18T14:03:32;8.15;;;4.95;;
14732;SDS011;7457;50.960;6.830;2023-11-18T14:05:59;7.35;;;5.70;;
14732;SDS011;7457;50.960;6.830;2023-11-18T14:08:27;8.13;;;6.55;;
14732;SDS011;7457;50.960;6.830;2023-11-18T14:10:54;9.90;;;6.78;;
14732;SDS011;7457;50.960;6.830;2023-11-18T14:13:20;5.47;;;4.90;;
14732;SDS011;7457;50.960;6.830;2023-11-18T14:15:47;7.78;;;5.13;;
14732;SDS011;7457;50.960;6.830;2023-11-18T14:18:13;7.80;;;5.85;;
14732;SDS011;7457;50.960;6.830;2023-11-18T14:20:39;7.82;;;5.95;;
14732;SDS011;7457;50.960;6.830;2023-11-18T14:23:05;7.38;;;4.95;;
14732;SDS011;7457;50.960;6.830;2023-11-18T14:25:33;9.18;;;5.13;;
14732;SDS011;7457;50.960;6.830;2023-11-18T14:27:59;8.73;;;5.47;;
14732;SDS011;7457;50.960;6.830;2023-11-18T14:30:27;6.03;;;5.05;;
14732;SDS011;7457;50.960;6.830;2023-11-18T14:32:53;9.98;;;6.78;;
14732;SDS011;7457;50.960;6.830;2023-11-18T14:35:19;8.05;;;5.05;;
14732;SDS011;7457;50.960;6.830;2023-11-18T14:37:45;8.43;;;4.78;;
14732;SDS011;7457;50.960;6.830;2023-11-18T14:40:12;9.57;;;4.85;;
14732;SDS011;7457;50.960;6.830;2023-11-18T14:42:47;7.50;;;5.38;;
14732;SDS011;7457;50.960;6.830;2023-11-18T14:45:15;9.55;;;5.43;;
14732;SDS011;7457;50.960;6.830;2023-11-18T14:47:42;8.57;;;5.65;;
14732;SDS011;7457;50.960;6.830;2023-11-18T14:50:19;6.95;;;5.57;;
14732;SDS011;7457;50.960;6.830;2023-11-18T14:52:49;9.40;;;5.97;;
14732;SDS011;7457;50.960;6.830;2023-11-18T14:55:16;14.43;;;6.00;;
14732;SDS011;7457;50.960;6.830;2023-11-18T14:57:43;9.00;;;5.78;;
14732;SDS011;7457;50.960;6.830;2023-11-18T15:00:10;11.38;;;5.88;;
14732;SDS011;7457;50.960;6.830;2023-11-18T15:02:48;8.38;;;5.75;;
14732;SDS011;7457;50.960;6.830;2023-11-18T15:05:15;9.20;;;7.45;;
14732;SDS011;7457;50.960;6.830;2023-11-18T15:07:44;12.35;;;7.63;;
14732;SDS011;7457;50.960;6.830;2023-11-18T15:10:12;13.80;;;7.13;;
14732;SDS011;7457;50.960;6.830;2023-11-18T15:12:54;7.88;;;5.25;;
14732;SDS011;7457;50.960;6.830;2023-11-18T15:15:27;6.93;;;5.32;;
14732;SDS011;7457;50.960;6.830;2023-11-18T15:18:15;12.00;;;5.43;;
14732;SDS011;7457;50.960;6.830;2023-11-18T15:20:45;6.47;;;5.40;;
14732;SDS011;7457;50.960;6.830;2023-11-18T15:23:11;11.07;;;5.90;;
14732;SDS011;7457;50.960;6.830;2023-11-18T15:25:39;7.65;;;5.47;;